Time;durP1;ratioP1;P1;durP2;ratioP2;P2;SDS_P1;SDS_P2;PMS_P1;PMS_P2;Temp;Humidity;BMP_temperature;BMP_pressure;BME280_temperature;BME280_humidity;BME280_pressure;Samples;Min_cycle;Max_cycle;Signal;HPM_P1;HPM_P2
2022/11/23 00:01:13;;;;;;;21.65;16.13;;;7.30;99.90;;;;;;5125665;27;20039;-81
2022/11/23 00:03:38;;;;;;;22.35;16.15;;;7.40;99.90;;;;;;5094725;28;20044;-80
2022/11/23 00:06:04;;;;;;;21.60;16.42;;;7.30;99.90;;;;;;5094913;28;20043;-81
2022/11/23 00:08:30;;;;;;;22.38;17.02;;;7.30;99.90;;;;;;5094709;28;20541;-80
2022/11/23 00:10:59;;;;;;;23.20;15.70;;;7.30;99.90;;;;;;5113036;28;20104;-81
2022/11/23 00:13:25;;;;;;;21.65;16.05;;;7.40;99.90;;;;;;5084144;27;20079;-80
2022/11/23 00:15:51;;;;;;;22.23;15.88;;;7.60;99.90;;;;;;5098952;28;20429;-81
2022/11/23 00:18:17;;;;;;;20.90;16.55;;;7.40;99.90;;;;;;5115518;28;20039;-81
2022/11/23 00:20:44;;;;;;;23.17;16.60;;;7.40;99.90;;;;;;5133259;28;20039;-81
2022/11/23 00:23:10;;;;;;;22.60;16.88;;;7.40;99.90;;;;;;5115309;28;20042;-80
2022/11/23 00:25:35;;;;;;;21.10;16.77;;;7.50;99.90;;;;;;5133347;27;20043;-80
2022/11/23 00:28:01;;;;;;;22.33;16.25;;;7.50;99.90;;;;;;5133589;28;20043;-80
2022/11/23 00:30:28;;;;;;;23.15;16.42;;;7.80;99.90;;;;;;5133544;28;20039;-80
2022/11/23 00:32:54;;;;;;;20.88;16.33;;;7.50;99.90;;;;;;5133384;28;20487;-80
2022/11/23 00:35:21;;;;;;;24.15;15.98;;;7.60;99.90;;;;;;5133519;28;20049;-80
2022/11/23 00:37:47;;;;;;;24.15;16.60;;;7.60;99.90;;;;;;5133910;28;20046;-81
2022/11/23 00:40:13;;;;;;;24.50;17.48;;;7.70;99.90;;;;;;5114682;28;20031;-80
2022/11/23 00:42:41;;;;;;;22.08;16.23;;;7.70;99.90;;;;;;5133028;28;20095;-80
2022/11/23 00:45:07;;;;;;;26.23;16.23;;;7.70;99.90;;;;;;5097174;28;20047;-80
2022/11/23 00:47:33;;;;;;;22.70;16.70;;;7.70;99.90;;;;;;5114619;28;20172;-80
2022/11/23 00:49:58;;;;;;;23.92;16.05;;;9.00;99.90;;;;;;5132964;28;20565;-80
2022/11/23 00:52:24;;;;;;;22.73;16.02;;;7.70;99.90;;;;;;5132894;28;20090;-80
2022/11/23 00:54:53;;;;;;;24.48;15.52;;;7.80;99.90;;;;;;5096597;28;20044;-80
2022/11/23 00:57:18;;;;;;;20.88;15.00;;;7.80;99.90;;;;;;5115543;28;20491;-80
2022/11/23 00:59:44;;;;;;;21.73;15.25;;;7.90;99.90;;;;;;5097661;28;20031;-81
2022/11/23 01:02:10;;;;;;;21.10;15.00;;;7.80;99.90;;;;;;5117413;27;20054;-80
2022/11/23 01:04:38;;;;;;;23.83;16.23;;;7.90;99.90;;;;;;5101519;27;20039;-80
2022/11/23 01:07:06;;;;;;;23.40;15.13;;;9.00;99.90;;;;;;5136833;27;20088;-80
2022/11/23 01:09:32;;;;;;;22.48;15.70;;;7.80;99.90;;;;;;5136566;27;20210;-80
2022/11/23 01:11:57;;;;;;;20.20;15.32;;;7.80;99.90;;;;;;5136862;27;20071;-80
2022/11/23 01:14:23;;;;;;;25.88;15.40;;;7.90;99.90;;;;;;5118273;27;20183;-80
2022/11/23 01:16:49;;;;;;;23.25;14.48;;;8.10;99.90;;;;;;5118254;27;20083;-80
2022/11/23 01:19:17;;;;;;;21.58;14.35;;;7.80;99.90;;;;;;5118416;27;20051;-80
2022/11/23 01:21:43;;;;;;;20.67;14.75;;;7.90;99.90;;;;;;5102921;28;20036;-80
2022/11/23 01:24:13;;;;;;;19.75;13.93;;;8.50;99.90;;;;;;5097747;28;20047;-80
2022/11/23 01:26:40;;;;;;;21.77;13.18;;;8.40;99.90;;;;;;5115744;28;20396;-81
2022/11/23 01:29:06;;;;;;;21.42;13.35;;;8.00;99.90;;;;;;5116280;28;20054;-81
2022/11/23 01:31:32;;;;;;;22.55;13.50;;;8.00;99.90;;;;;;5098431;28;20054;-81
2022/11/23 01:34:00;;;;;;;17.65;13.40;;;8.00;99.90;;;;;;5120728;27;20418;-80
2022/11/23 01:36:31;;;;;;;19.48;13.48;;;8.00;99.90;;;;;;5115936;28;20044;-81
2022/11/23 01:38:58;;;;;;;20.98;13.50;;;8.00;99.90;;;;;;5105451;27;20096;-81
2022/11/23 01:41:30;;;;;;;19.50;12.88;;;8.00;99.90;;;;;;5117484;27;20043;-81
2022/11/23 01:43:55;;;;;;;23.95;13.18;;;8.10;99.90;;;;;;5134841;27;20104;-81
2022/11/23 01:46:22;;;;;;;19.27;12.45;;;8.10;99.90;;;;;;5117326;27;20491;-81
2022/11/23 01:48:50;;;;;;;21.10;13.50;;;8.40;99.90;;;;;;5100255;27;20096;-81
2022/11/23 01:51:20;;;;;;;18.77;12.57;;;8.10;99.90;;;;;;5117615;27;20043;-81
2022/11/23 01:53:48;;;;;;;18.88;12.60;;;8.10;99.90;;;;;;5133285;27;20047;-81
2022/11/23 01:56:25;;;;;;;20.48;12.82;;;8.10;99.90;;;;;;5117437;27;20472;-81
2022/11/23 01:58:54;;;;;;;17.63;12.00;;;8.30;99.90;;;;;;5117911;27;20059;-81
2022/11/23 02:01:20;;;;;;;21.75;13.00;;;8.20;99.90;;;;;;5117593;27;20501;-81
2022/11/23 02:03:47;;;;;;;21.17;13.07;;;8.20;99.90;;;;;;5117187;27;20071;-80
2022/11/23 02:06:16;;;;;;;18.77;12.77;;;8.20;99.90;;;;;;5110490;27;20039;-81
2022/11/23 02:08:43;;;;;;;18.48;12.65;;;9.40;99.90;;;;;;5117117;27;20046;-81
2022/11/23 02:11:11;;;;;;;17.58;12.73;;;8.20;99.90;;;;;;5131327;27;20077;-80
2022/11/23 02:13:37;;;;;;;18.65;12.73;;;8.20;99.90;;;;;;5114667;28;20055;-81
2022/11/23 02:16:03;;;;;;;20.40;13.00;;;8.20;99.90;;;;;;5115218;28;20039;-81
2022/11/23 02:18:30;;;;;;;19.33;13.38;;;8.20;99.90;;;;;;5080117;28;20075;-81
2022/11/23 02:20:59;;;;;;;17.40;12.13;;;8.20;99.90;;;;;;5114763;28;20126;-81
2022/11/23 02:23:50;;;;;;;22.92;13.75;;;8.20;99.90;;;;;;5098280;27;20055;-80
2022/11/23 02:26:26;;;;;;;18.75;12.88;;;8.20;99.90;;;;;;5096350;28;20078;-81
2022/11/23 02:29:08;;;;;;;22.77;14.05;;;8.20;99.90;;;;;;5114244;28;20066;-81
2022/11/23 02:31:35;;;;;;;21.75;14.07;;;8.10;99.90;;;;;;5110416;28;20435;-80
2022/11/23 02:34:01;;;;;;;21.48;14.63;;;9.00;99.90;;;;;;5096318;28;20051;-80
2022/11/23 02:36:37;;;;;;;22.92;14.60;;;9.40;99.90;;;;;;5114398;28;20050;-80
2022/11/23 02:39:09;;;;;;;24.02;13.18;;;8.30;99.90;;;;;;5096052;27;20062;-81
2022/11/23 02:41:41;;;;;;;17.55;13.15;;;8.10;99.90;;;;;;5118858;27;20047;-81
2022/11/23 02:44:26;;;;;;;23.23;14.68;;;8.10;99.90;;;;;;5134891;27;20568;-80
2022/11/23 02:46:52;;;;;;;22.05;13.80;;;8.10;99.90;;;;;;5135022;27;20126;-81
2022/11/23 02:49:18;;;;;;;20.63;13.63;;;8.10;99.90;;;;;;5099219;27;20043;-80
2022/11/23 02:51:43;;;;;;;21.33;15.20;;;9.60;99.90;;;;;;5116439;27;20035;-81
2022/11/23 02:54:09;;;;;;;22.95;14.20;;;8.10;99.90;;;;;;5134402;27;20064;-81
2022/11/23 02:56:35;;;;;;;20.02;14.38;;;9.20;99.90;;;;;;5127876;27;20039;-80
2022/11/23 02:59:00;;;;;;;23.83;15.07;;;8.10;99.90;;;;;;5134763;27;20533;-81
2022/11/23 03:01:27;;;;;;;21.38;14.75;;;8.10;99.90;;;;;;5134551;27;20031;-81
2022/11/23 03:03:53;;;;;;;21.80;14.23;;;8.10;99.90;;;;;;5132599;27;20349;-81
2022/11/23 03:06:18;;;;;;;22.35;13.50;;;8.60;99.90;;;;;;5114747;27;20118;-81
2022/11/23 03:08:44;;;;;;;20.88;14.38;;;8.20;99.90;;;;;;5134245;27;20133;-81
2022/11/23 03:11:10;;;;;;;21.55;14.27;;;8.20;99.90;;;;;;5133876;27;20372;-80
2022/11/23 03:13:36;;;;;;;20.98;13.93;;;8.10;99.90;;;;;;5134378;27;20039;-81
2022/11/23 03:16:01;;;;;;;20.15;13.52;;;8.10;99.90;;;;;;5116257;27;20426;-81
2022/11/23 03:18:27;;;;;;;21.88;14.52;;;8.30;99.90;;;;;;5115251;27;20039;-81
2022/11/23 03:20:53;;;;;;;20.85;13.52;;;8.40;99.90;;;;;;5134418;27;20062;-81
2022/11/23 03:23:19;;;;;;;20.23;14.05;;;9.00;99.90;;;;;;5115166;27;20039;-81
2022/11/23 03:25:53;;;;;;;23.20;14.02;;;8.10;99.90;;;;;;5133000;27;20130;-80
2022/11/23 03:28:18;;;;;;;21.13;12.93;;;8.20;99.90;;;;;;5115117;27;20054;-81
2022/11/23 03:30:44;;;;;;;21.88;13.85;;;8.20;99.90;;;;;;5114975;27;20235;-81
2022/11/23 03:33:09;;;;;;;23.33;13.68;;;8.20;99.90;;;;;;5115038;27;20471;-81
2022/11/23 03:35:36;;;;;;;20.27;13.65;;;8.20;99.90;;;;;;5132943;27;20039;-81
2022/11/23 03:38:02;;;;;;;23.13;14.23;;;8.20;99.90;;;;;;5097452;27;20126;-81
2022/11/23 03:40:28;;;;;;;22.77;14.38;;;8.20;99.90;;;;;;5133483;27;20062;-81
2022/11/23 03:42:53;;;;;;;23.05;15.23;;;8.20;99.90;;;;;;5115221;27;20039;-80
2022/11/23 03:45:19;;;;;;;25.80;15.23;;;8.20;99.90;;;;;;5107467;28;20039;-81
2022/11/23 03:47:44;;;;;;;24.30;14.27;;;9.10;99.90;;;;;;5114584;27;20507;-81
2022/11/23 03:50:10;;;;;;;23.58;14.57;;;8.10;99.90;;;;;;5115600;27;20035;-81
2022/11/23 03:52:36;;;;;;;29.50;14.82;;;8.10;99.90;;;;;;5133493;27;20035;-81
2022/11/23 03:55:02;;;;;;;22.17;13.95;;;9.20;99.90;;;;;;5133537;27;20066;-81
2022/11/23 03:57:27;;;;;;;27.40;15.35;;;8.20;99.90;;;;;;5133683;27;20090;-81
2022/11/23 03:59:53;;;;;;;22.25;14.43;;;8.20;99.90;;;;;;5133431;27;20175;-80
2022/11/23 04:02:18;;;;;;;23.90;14.38;;;8.20;99.90;;;;;;5113064;27;20146;-81
2022/11/23 04:04:44;;;;;;;22.73;15.35;;;9.00;99.90;;;;;;5113934;27;20053;-81
2022/11/23 04:07:10;;;;;;;25.45;15.60;;;8.50;99.90;;;;;;5133938;27;20039;-81
2022/11/23 04:09:35;;;;;;;25.83;15.20;;;9.10;99.90;;;;;;5132438;28;20539;-81
2022/11/23 04:12:01;;;;;;;28.20;15.98;;;8.20;99.90;;;;;;5113452;28;20047;-80
2022/11/23 04:14:26;;;;;;;27.30;15.98;;;8.20;99.90;;;;;;5131834;28;20065;-80
2022/11/23 04:16:52;;;;;;;24.90;15.40;;;8.20;99.90;;;;;;5118427;28;20071;-81
2022/11/23 04:19:18;;;;;;;25.58;15.57;;;9.10;99.90;;;;;;5113017;28;20044;-81
2022/11/23 04:21:43;;;;;;;28.30;16.83;;;8.20;99.90;;;;;;5094388;28;20096;-80
2022/11/23 04:24:09;;;;;;;26.83;15.60;;;8.20;99.90;;;;;;5112920;28;20090;-81
2022/11/23 04:26:34;;;;;;;34.17;18.02;;;8.80;99.90;;;;;;5094473;28;20502;-81
2022/11/23 04:29:00;;;;;;;29.83;16.52;;;8.90;99.90;;;;;;5111730;28;20112;-81
2022/11/23 04:31:25;;;;;;;26.92;17.25;;;9.30;99.90;;;;;;5091890;28;20039;-80
2022/11/23 04:33:53;;;;;;;28.45;17.08;;;8.20;99.90;;;;;;5111250;28;20051;-80
2022/11/23 04:36:18;;;;;;;30.48;17.42;;;8.30;99.90;;;;;;5079527;28;20043;-81
2022/11/23 04:38:44;;;;;;;28.75;18.08;;;8.30;99.90;;;;;;5098704;28;20593;-79
2022/11/23 04:41:10;;;;;;;30.25;17.40;;;9.00;99.90;;;;;;5133115;27;20035;-81
2022/11/23 04:43:35;;;;;;;33.30;18.42;;;8.30;99.90;;;;;;5117100;27;20077;-80
2022/11/23 04:46:01;;;;;;;28.42;17.60;;;8.30;99.90;;;;;;5118340;27;20419;-81
2022/11/23 04:48:26;;;;;;;33.97;18.73;;;8.30;99.90;;;;;;5137135;27;20078;-81
2022/11/23 04:50:52;;;;;;;36.45;19.30;;;8.30;99.90;;;;;;5118669;27;20130;-81
2022/11/23 04:53:18;;;;;;;32.03;19.38;;;8.90;99.90;;;;;;5116573;27;20050;-81
2022/11/23 04:55:46;;;;;;;36.08;19.23;;;8.30;99.90;;;;;;5112658;28;20117;-81
2022/11/23 04:58:11;;;;;;;35.17;19.05;;;9.60;99.90;;;;;;5116628;28;20065;-80
2022/11/23 05:00:37;;;;;;;35.33;18.90;;;8.30;99.90;;;;;;5098296;28;20040;-80
2022/11/23 05:03:03;;;;;;;36.90;19.10;;;9.40;99.90;;;;;;5098230;28;20092;-80
2022/11/23 05:05:29;;;;;;;32.72;19.20;;;8.40;99.90;;;;;;5116312;28;20043;-80
2022/11/23 05:07:55;;;;;;;34.15;19.27;;;8.30;99.90;;;;;;5115239;28;20519;-80
2022/11/23 05:10:21;;;;;;;34.95;20.52;;;8.40;99.90;;;;;;5111554;27;20091;-81
2022/11/23 05:12:46;;;;;;;29.80;18.52;;;8.30;99.90;;;;;;5136700;27;20043;-80
2022/11/23 05:15:13;;;;;;;31.50;19.48;;;8.40;99.90;;;;;;5136374;27;20519;-80
2022/11/23 05:17:39;;;;;;;34.28;19.80;;;8.40;99.90;;;;;;5135407;27;20047;-81
2022/11/23 05:20:06;;;;;;;36.40;19.95;;;9.40;99.90;;;;;;5101138;27;20042;-81
2022/11/23 05:22:31;;;;;;;36.33;20.35;;;8.40;99.90;;;;;;5118148;27;20175;-80
2022/11/23 05:24:57;;;;;;;35.47;20.13;;;8.40;99.90;;;;;;5135883;27;20084;-80
2022/11/23 05:27:22;;;;;;;31.20;20.25;;;8.40;99.90;;;;;;5117509;27;20437;-81
2022/11/23 05:29:48;;;;;;;32.08;20.13;;;8.30;99.90;;;;;;5136474;27;20126;-81
2022/11/23 05:32:14;;;;;;;29.92;18.67;;;8.40;99.90;;;;;;5136296;27;20065;-80
2022/11/23 05:34:39;;;;;;;35.33;20.50;;;8.40;99.90;;;;;;5136166;27;20549;-81
2022/11/23 05:37:05;;;;;;;35.58;19.60;;;8.40;99.90;;;;;;5134787;27;20122;-81
2022/11/23 05:39:30;;;;;;;31.55;20.70;;;8.70;99.90;;;;;;5136404;27;20121;-80
2022/11/23 05:41:56;;;;;;;33.63;20.98;;;8.50;99.90;;;;;;5136203;27;20363;-80
2022/11/23 05:44:22;;;;;;;34.40;21.13;;;8.40;99.90;;;;;;5136077;27;20495;-79
2022/11/23 05:46:47;;;;;;;30.30;20.17;;;8.70;99.90;;;;;;5116573;27;20100;-81
2022/11/23 05:49:13;;;;;;;33.78;21.48;;;9.20;99.90;;;;;;5135455;27;20432;-81
2022/11/23 05:51:39;;;;;;;29.23;18.83;;;9.60;99.90;;;;;;5117439;27;20031;-81
2022/11/23 05:54:04;;;;;;;35.80;21.17;;;8.80;99.90;;;;;;5116855;27;20051;-80
2022/11/23 05:56:30;;;;;;;34.88;21.60;;;8.50;99.90;;;;;;5135963;27;20046;-80
2022/11/23 05:58:56;;;;;;;34.28;20.48;;;8.90;99.90;;;;;;5135791;27;20092;-81
2022/11/23 06:01:22;;;;;;;34.03;21.25;;;8.50;99.90;;;;;;5135588;27;20042;-78
2022/11/23 06:03:51;;;;;;;29.48;20.10;;;8.30;99.90;;;;;;5117194;27;20043;-80
2022/11/23 06:06:16;;;;;;;28.02;19.77;;;8.60;99.90;;;;;;5117257;27;20053;-80
2022/11/23 06:08:42;;;;;;;31.30;20.25;;;8.60;99.90;;;;;;5135682;27;20043;-80
2022/11/23 06:11:08;;;;;;;35.80;21.05;;;8.60;99.90;;;;;;5116854;27;20483;-80
2022/11/23 06:13:33;;;;;;;33.45;19.98;;;8.60;99.90;;;;;;5117076;27;20047;-80
2022/11/23 06:15:59;;;;;;;33.63;20.50;;;8.60;99.90;;;;;;5135155;27;20039;-80
2022/11/23 06:18:25;;;;;;;35.03;19.98;;;9.10;99.90;;;;;;5135083;27;20043;-80
2022/11/23 06:20:50;;;;;;;31.20;19.83;;;8.60;99.90;;;;;;5135352;27;20035;-80
2022/11/23 06:23:16;;;;;;;32.30;19.00;;;8.60;99.90;;;;;;5133783;27;20099;-81
2022/11/23 06:25:42;;;;;;;29.02;19.35;;;8.60;99.90;;;;;;5114453;28;20465;-80
2022/11/23 06:28:07;;;;;;;30.23;18.58;;;8.60;99.90;;;;;;5114882;28;20043;-82
2022/11/23 06:30:33;;;;;;;30.40;17.88;;;8.60;99.90;;;;;;5114623;28;20036;-82
2022/11/23 06:33:02;;;;;;;29.83;18.67;;;8.60;99.90;;;;;;5111133;27;20122;-82
2022/11/23 06:35:27;;;;;;;29.73;16.80;;;8.80;99.90;;;;;;5133473;27;20118;-82
2022/11/23 06:37:53;;;;;;;29.45;18.27;;;8.60;99.90;;;;;;5135640;27;20483;-83
2022/11/23 06:40:20;;;;;;;28.95;16.85;;;8.80;99.90;;;;;;5116146;27;20039;-82
2022/11/23 06:42:46;;;;;;;27.20;15.98;;;8.60;99.90;;;;;;5134585;27;20043;-82
2022/11/23 06:45:12;;;;;;;29.05;16.00;;;8.60;99.90;;;;;;5134835;27;20104;-82
2022/11/23 06:47:37;;;;;;;25.58;16.92;;;8.60;99.90;;;;;;5099801;27;20039;-82
2022/11/23 06:50:04;;;;;;;26.02;15.80;;;8.60;99.90;;;;;;5135066;27;20046;-82
2022/11/23 06:52:29;;;;;;;24.58;15.52;;;8.60;99.90;;;;;;5114263;27;20071;-82
2022/11/23 06:54:55;;;;;;;23.73;14.82;;;8.90;99.90;;;;;;5133090;27;20447;-82
2022/11/23 06:57:20;;;;;;;22.20;14.02;;;8.60;99.90;;;;;;5115972;27;20079;-82
2022/11/23 06:59:47;;;;;;;25.83;14.27;;;8.60;99.90;;;;;;5116073;27;20070;-82
2022/11/23 07:02:13;;;;;;;24.38;14.23;;;8.60;99.90;;;;;;5134793;27;20070;-82
2022/11/23 07:04:39;;;;;;;20.27;13.90;;;8.60;99.90;;;;;;5134695;27;20043;-82
2022/11/23 07:07:07;;;;;;;23.52;12.75;;;9.80;99.90;;;;;;5115747;27;20134;-82
2022/11/23 07:09:33;;;;;;;19.20;12.68;;;8.60;99.90;;;;;;5133726;27;20043;-82
2022/11/23 07:11:58;;;;;;;26.17;13.63;;;8.60;99.90;;;;;;5114285;27;20047;-82
2022/11/23 07:14:24;;;;;;;18.38;11.77;;;9.60;99.90;;;;;;5115256;27;20085;-82
2022/11/23 07:16:50;;;;;;;19.40;12.10;;;8.50;99.90;;;;;;5115420;27;20093;-82
2022/11/23 07:19:16;;;;;;;20.13;11.88;;;8.50;99.90;;;;;;5134594;27;20035;-82
2022/11/23 07:21:41;;;;;;;20.35;11.45;;;8.70;99.90;;;;;;5114302;27;20074;-81
2022/11/23 07:24:07;;;;;;;17.75;11.05;;;8.60;99.90;;;;;;5115356;27;20136;-82
2022/11/23 07:26:33;;;;;;;20.95;11.18;;;8.60;99.90;;;;;;5132599;27;20495;-84
2022/11/23 07:28:58;;;;;;;21.75;11.77;;;8.80;99.90;;;;;;5133338;27;20043;-81
2022/11/23 07:31:24;;;;;;;20.40;10.70;;;8.60;99.90;;;;;;5131992;27;20046;-81
2022/11/23 07:33:49;;;;;;;20.40;11.13;;;8.50;99.90;;;;;;5115371;27;20054;-82
2022/11/23 07:36:15;;;;;;;18.08;10.52;;;8.50;99.90;;;;;;5115219;27;20498;-82
2022/11/23 07:38:41;;;;;;;18.70;10.50;;;8.50;99.90;;;;;;5094649;28;20047;-82
2022/11/23 07:41:07;;;;;;;18.63;9.90;;;8.50;99.90;;;;;;5112612;28;20498;-81
2022/11/23 07:43:32;;;;;;;21.00;10.35;;;8.60;99.90;;;;;;5113020;28;20096;-82
2022/11/23 07:45:58;;;;;;;15.48;9.27;;;9.40;99.90;;;;;;5112457;28;20051;-82
2022/11/23 07:48:24;;;;;;;19.00;10.48;;;8.60;99.90;;;;;;5111320;28;20071;-82
2022/11/23 07:50:53;;;;;;;20.30;10.20;;;8.60;99.90;;;;;;5112850;28;20069;-81
2022/11/23 07:53:20;;;;;;;19.25;9.80;;;8.50;99.90;;;;;;5094523;28;20077;-79
2022/11/23 07:55:45;;;;;;;19.20;10.40;;;8.60;99.90;;;;;;5094788;28;20388;-82
2022/11/23 07:58:11;;;;;;;20.52;10.00;;;8.50;99.90;;;;;;5113100;28;20044;-82
2022/11/23 08:00:37;;;;;;;18.98;9.80;;;8.60;99.90;;;;;;5122680;27;20474;-82
2022/11/23 08:03:03;;;;;;;18.17;9.07;;;9.50;99.90;;;;;;5133829;27;20158;-81
2022/11/23 08:05:31;;;;;;;14.30;8.63;;;8.60;99.90;;;;;;5133810;27;20043;-82
2022/11/23 08:08:01;;;;;;;15.10;8.35;;;9.30;99.90;;;;;;5134529;27;20476;-82
2022/11/23 08:10:28;;;;;;;15.95;9.07;;;8.60;99.90;;;;;;5133249;27;20039;-82
2022/11/23 08:12:58;;;;;;;20.05;8.57;;;8.50;99.90;;;;;;5114629;28;20050;-82
2022/11/23 08:15:26;;;;;;;16.33;8.70;;;9.10;99.90;;;;;;5114329;28;20051;-81
2022/11/23 08:18:00;;;;;;;17.52;8.45;;;8.40;99.90;;;;;;5114499;28;20368;-83
2022/11/23 08:20:28;;;;;;;16.83;8.00;;;8.60;99.90;;;;;;5133387;28;20039;-82
2022/11/23 08:22:56;;;;;;;16.17;8.57;;;8.60;99.90;;;;;;5114864;28;20061;-82
2022/11/23 08:25:26;;;;;;;18.15;7.78;;;8.60;99.90;;;;;;5126732;28;20039;-82
2022/11/23 08:28:00;;;;;;;19.67;7.63;;;8.60;99.90;;;;;;5116077;28;20134;-87
2022/11/23 08:30:31;;;;;;;16.25;8.10;;;8.60;99.90;;;;;;5133838;28;20122;-84
2022/11/23 08:32:57;;;;;;;20.92;7.75;;;8.60;99.90;;;;;;5130722;28;20078;-86
2022/11/23 08:35:23;;;;;;;16.15;7.20;;;8.60;99.90;;;;;;5132252;28;20579;-85
2022/11/23 08:37:49;;;;;;;19.30;7.22;;;8.70;99.90;;;;;;5133671;28;20547;-85
2022/11/23 08:40:14;;;;;;;13.50;6.90;;;9.90;99.90;;;;;;5097889;28;20380;-87
2022/11/23 08:42:41;;;;;;;18.73;7.68;;;8.70;99.90;;;;;;5130162;28;20039;-85
2022/11/23 08:45:07;;;;;;;15.48;7.13;;;8.60;99.90;;;;;;5131624;28;20085;-83
2022/11/23 08:47:33;;;;;;;15.52;6.97;;;8.60;99.90;;;;;;5114861;28;20075;-85
2022/11/23 08:49:59;;;;;;;14.45;6.97;;;8.70;99.90;;;;;;5134183;28;20594;-85
2022/11/23 08:52:25;;;;;;;18.45;7.40;;;8.70;99.90;;;;;;5134514;28;20079;-83
2022/11/23 08:54:51;;;;;;;18.05;7.18;;;9.20;99.90;;;;;;5114433;28;20046;-83
2022/11/23 08:57:17;;;;;;;17.38;6.20;;;8.70;99.90;;;;;;5113883;28;20039;-83
2022/11/23 08:59:42;;;;;;;17.63;7.00;;;8.70;99.90;;;;;;5113780;28;20123;-83
2022/11/23 09:02:12;;;;;;;15.02;6.90;;;8.70;99.90;;;;;;5114226;28;20088;-85
2022/11/23 09:04:42;;;;;;;15.88;6.45;;;8.80;99.90;;;;;;5114235;28;20068;-83
2022/11/23 09:07:08;;;;;;;14.07;6.40;;;;;;;;;;5114831;28;20051;-85
2022/11/23 09:09:34;;;;;;;16.02;6.07;;;;;;;;;;5114818;28;20039;-84
2022/11/23 09:12:00;;;;;;;18.45;6.78;;;;;;;;;;5115434;28;20049;-85
2022/11/23 09:14:26;;;;;;;14.70;6.47;;;;;;;;;;5094626;28;20404;-85
2022/11/23 09:16:53;;;;;;;14.68;6.32;;;;;;;;;;5094111;28;20062;-85
2022/11/23 09:19:19;;;;;;;14.18;6.50;;;;;;;;;;5111975;28;20051;-85
2022/11/23 09:21:45;;;;;;;16.98;6.80;;;;;;;;;;5112377;28;20069;-85
2022/11/23 09:24:11;;;;;;;18.98;6.53;;;;;;;;;;5117921;27;20043;-84
2022/11/23 09:26:38;;;;;;;12.65;5.80;;;;;;;;;;5136066;27;20039;-82
2022/11/23 09:29:04;;;;;;;19.25;5.93;;;;;;;;;;5134695;27;20082;-84
2022/11/23 09:31:30;;;;;;;15.27;6.47;;;;;;;;;;5141599;27;20035;-83
2022/11/23 09:33:56;;;;;;;13.23;5.78;;;;;;;;;;5136079;27;20483;-83
2022/11/23 09:36:23;;;;;;;14.52;5.60;;;;;;;;;;5117274;27;20084;-84
2022/11/23 09:38:49;;;;;;;16.70;6.60;;;;;;;;;;5118126;27;20395;-84
2022/11/23 09:41:21;;;;;;;13.68;5.80;;;;;;;;;;5137082;27;20043;-83
2022/11/23 09:44:01;;;;;;;14.43;5.82;;;;;;;;;;5134904;27;20426;-84
2022/11/23 09:46:39;;;;;;;11.55;5.95;;;;;;;;;;5134923;27;20055;-84
2022/11/23 09:49:15;;;;;;;15.65;6.15;;;;;;;;;;5134177;27;20051;-85
2022/11/23 09:51:41;;;;;;;13.10;5.40;;;;;;;;;;5134805;27;20039;-87
2022/11/23 09:54:22;;;;;;;15.15;5.57;;;;;;;;;;5136716;27;20043;-86
2022/11/23 09:56:50;;;;;;;19.50;5.78;;;;;;;;;;5133464;27;20043;-86
2022/11/23 09:59:36;;;;;;;12.82;5.43;;;;;;;;;;5117153;27;20044;-84
2022/11/23 10:02:02;;;;;;;;;;;;;;;;;;5130027;27;20128;-84
2022/11/23 10:04:32;;;;;;;16.25;5.47;;;;;;;;;;5115319;28;20314;-84
2022/11/23 10:07:09;;;;;;;12.02;4.65;;;;;;;;;;5115258;28;20092;-84
2022/11/23 10:09:45;;;;;;;15.07;4.97;;;;;;;;;;5113423;28;20047;-83
2022/11/23 10:12:11;;;;;;;16.08;5.25;;;;;;;;;;5115662;28;20040;-84
2022/11/23 10:14:37;;;;;;;10.85;4.38;;;;;;;;;;5096316;28;20070;-84
2022/11/23 10:17:08;;;;;;;15.35;4.75;;;;;;;;;;5096698;28;20498;-84
2022/11/23 10:19:52;;;;;;;11.57;4.93;;;;;;;;;;5080223;28;20508;-84
2022/11/23 10:22:26;;;;;;;11.98;4.47;;;;;;;;;;5114602;28;20085;-85
2022/11/23 10:25:00;;;;;;;8.57;4.50;;;;;;;;;;5096401;28;20040;-85
2022/11/23 10:27:29;;;;;;;13.98;5.10;;;;;;;;;;5097323;28;20050;-84
2022/11/23 10:29:55;;;;;;;17.30;5.10;;;;;;;;;;5116267;28;20417;-84
2022/11/23 10:32:27;;;;;;;12.15;5.13;;;;;;;;;;5097404;28;20039;-85
2022/11/23 10:34:58;;;;;;;17.17;5.90;;;;;;;;;;5097165;28;20441;-84
2022/11/23 10:37:24;;;;;;;14.77;5.30;;;;;;;;;;5097609;28;20484;-84
2022/11/23 10:39:50;;;;;;;11.48;4.30;;;;;;;;;;5080313;28;20088;-85
2022/11/23 10:42:19;;;;;;;14.50;5.00;;;;;;;;;;5115014;28;20044;-85
2022/11/23 10:44:46;;;;;;;12.38;4.82;;;;;;;;;;5080887;27;20082;-85
2022/11/23 10:47:32;;;;;;;15.80;5.00;;;;;;;;;;5116654;27;20050;-84
2022/11/23 10:49:58;;;;;;;15.00;5.53;;;;;;;;;;5135140;27;20169;-85
2022/11/23 10:52:28;;;;;;;12.85;4.70;;;;;;;;;;5134979;27;20310;-84
2022/11/23 10:54:55;;;;;;;10.50;4.20;;;;;;;;;;5125256;27;20110;-84
2022/11/23 10:57:27;;;;;;;14.52;4.60;;;;;;;;;;5120325;27;20437;-84
2022/11/23 11:00:16;;;;;;;16.20;4.33;;;;;;;;;;5135655;27;20047;-85
2022/11/23 11:02:43;;;;;;;;;;;;;;;;;;5116093;27;20085;-85
2022/11/23 11:05:35;;;;;;;13.43;4.50;;;;;;;;;;5133278;27;19919;-84
2022/11/23 11:08:03;;;;;;;10.27;4.57;;;;;;;;;;5095040;27;20051;-85
2022/11/23 11:10:32;;;;;;;17.42;4.60;;;;;;;;;;5115757;27;20150;-85
2022/11/23 11:12:59;;;;;;;12.68;4.13;;;;;;;;;;5134749;27;20039;-85
2022/11/23 11:15:25;;;;;;;15.65;3.90;;;;;;;;;;5134143;27;20103;-86
2022/11/23 11:17:58;;;;;;;17.85;4.80;;;;;;;;;;5133310;27;20038;-84
2022/11/23 11:20:27;;;;;;;13.60;4.38;;;;;;;;;;5133696;27;20150;-84
2022/11/23 11:22:54;;;;;;;12.15;3.65;;;;;;;;;;5114578;27;20035;-84
2022/11/23 11:25:31;;;;;;;14.25;3.88;;;;;;;;;;5115369;27;20401;-83
2022/11/23 11:27:57;;;;;;;18.48;4.38;;;;;;;;;;5116008;27;20047;-86
2022/11/23 11:30:24;;;;;;;13.65;4.65;;;;;;;;;;5097661;27;20043;-83
2022/11/23 11:33:23;;;;;;;12.05;4.00;;;;;;;;;;5114226;27;20107;-83
2022/11/23 11:35:52;;;;;;;13.55;3.83;;;9.80;99.90;;;;;;5058608;27;20051;-82
2022/11/23 11:38:28;;;;;;;12.25;3.22;;;13.90;99.90;;;;;;5133621;27;20050;-82
2022/11/23 11:40:56;;;;;;;11.55;3.42;;;12.60;99.90;;;;;;5133341;27;20058;-81
2022/11/23 11:43:30;;;;;;;13.25;3.22;;;13.10;99.90;;;;;;5133279;27;20343;-81
2022/11/23 11:46:01;;;;;;;9.88;2.78;;;13.90;99.90;;;;;;5132471;27;20135;-81
2022/11/23 11:48:38;;;;;;;12.02;3.50;;;14.60;99.90;;;;;;5113273;27;20051;-81
2022/11/23 11:51:09;;;;;;;12.73;3.40;;;14.60;99.90;;;;;;5114986;27;20047;-81
2022/11/23 11:54:17;;;;;;;11.35;3.00;;;14.20;99.90;;;;;;5133487;27;20038;-81
2022/11/23 11:56:49;;;;;;;12.50;2.97;;;13.90;99.90;;;;;;5114679;27;20047;-83
2022/11/23 11:59:28;;;;;;;11.32;3.13;;;15.00;99.90;;;;;;5133600;27;20039;-81
2022/11/23 12:02:34;;;;;;;10.13;3.30;;;15.30;99.90;;;;;;5133199;27;20057;-82
2022/11/23 12:05:14;;;;;;;18.38;3.30;;;16.00;99.90;;;;;;5064818;27;20055;-81
2022/11/23 12:08:05;;;;;;;12.48;2.92;;;16.30;99.90;;;;;;5132509;27;20086;-82
2022/11/23 12:11:05;;;;;;;14.15;3.00;;;16.90;99.90;;;;;;5131546;28;20042;-82
2022/11/23 12:13:36;;;;;;;14.98;3.40;;;17.30;99.90;;;;;;5053352;28;20087;-81
2022/11/23 12:16:02;;;;;;;16.95;3.15;;;17.60;99.90;;;;;;5094975;28;20043;-80
2022/11/23 12:18:46;;;;;;;11.73;3.00;;;17.80;99.90;;;;;;5112946;28;20047;-81
2022/11/23 12:21:47;;;;;;;11.98;3.30;;;17.80;99.90;;;;;;5094389;28;20038;-81
2022/11/23 12:24:30;;;;;;;12.45;3.00;;;18.00;99.90;;;;;;5122790;28;20050;-82
2022/11/23 12:27:33;;;;;;;15.00;3.38;;;18.40;99.90;;;;;;5132542;28;20167;-81
2022/11/23 12:30:17;;;;;;;13.57;3.13;;;19.10;99.90;;;;;;5132892;28;20499;-82
2022/11/23 12:33:01;;;;;;;14.55;2.97;;;19.70;99.90;;;;;;5133481;28;20045;-82
2022/11/23 12:35:29;;;;;;;13.27;3.38;;;20.10;99.90;;;;;;5113994;28;20510;-82
2022/11/23 12:38:24;;;;;;;9.60;2.97;;;20.20;99.90;;;;;;5114567;28;20051;-82
2022/11/23 12:41:28;;;;;;;12.23;3.00;;;20.60;99.90;;;;;;5133080;28;20066;-82
2022/11/23 12:44:25;;;;;;;10.60;2.70;;;20.90;99.20;;;;;;5114390;28;20053;-82
2022/11/23 12:47:15;;;;;;;12.15;3.15;;;20.70;98.80;;;;;;5133656;28;20058;-82
2022/11/23 12:50:01;;;;;;;11.68;2.90;;;20.30;98.50;;;;;;5114620;28;20437;-81
2022/11/23 12:52:54;;;;;;;12.48;3.25;;;20.30;99.00;;;;;;5132807;28;20087;-81
2022/11/23 12:55:28;;;;;;;10.63;2.60;;;20.30;98.60;;;;;;5113878;28;20047;-82
2022/11/23 12:58:20;;;;;;;9.45;2.67;;;20.40;97.30;;;;;;5133909;27;20468;-81
2022/11/23 13:01:11;;;;;;;9.23;2.88;;;19.80;97.70;;;;;;5115334;27;20047;-82
2022/11/23 13:03:59;;;;;;;14.60;2.97;;;18.90;98.30;;;;;;5098713;28;20048;-81
2022/11/23 13:06:51;;;;;;;11.82;2.72;;;18.10;99.20;;;;;;5097928;28;20356;-81
2022/11/23 13:09:47;;;;;;;12.15;2.65;;;17.60;99.90;;;;;;5096678;28;20047;-81